sensor_id;sensor_type;location;lat;lon;timestamp;pressure;altitude;pressure_sealevel;temperature;humidity
11912;BME280;6016;41.928;25.556;2024-01-06T00:01:10;98975.97;;;10.24;68.03
11912;BME280;6016;41.928;25.556;2024-01-06T00:03:40;98985.38;;;10.37;67.38
11912;BME280;6016;41.928;25.556;2024-01-06T00:06:07;98993.72;;;10.42;67.63
11912;BME280;6016;41.928;25.556;2024-01-06T00:08:34;98978.56;;;10.34;67.21
11912;BME280;6016;41.928;25.556;2024-01-06T00:11:00;98984.41;;;10.48;67.00
11912;BME280;6016;41.928;25.556;2024-01-06T00:13:29;98985.22;;;10.48;65.87
11912;BME280;6016;41.928;25.556;2024-01-06T00:15:56;98987.44;;;10.53;66.23
11912;BME280;6016;41.928;25.556;2024-01-06T00:18:23;98983.97;;;10.52;66.43
11912;BME280;6016;41.928;25.556;2024-01-06T00:20:51;98994.25;;;10.55;66.30
11912;BME280;6016;41.928;25.556;2024-01-06T00:23:18;98992.56;;;10.54;66.57
11912;BME280;6016;41.928;25.556;2024-01-06T00:25:45;98960.66;;;10.38;66.92
11912;BME280;6016;41.928;25.556;2024-01-06T00:28:12;98994.25;;;10.55;68.02
11912;BME280;6016;41.928;25.556;2024-01-06T00:30:39;98995.22;;;10.54;67.35
11912;BME280;6016;41.928;25.556;2024-01-06T00:33:06;98996.03;;;10.55;67.61
11912;BME280;6016;41.928;25.556;2024-01-06T00:35:33;98994.09;;;10.57;68.03
11912;BME280;6016;41.928;25.556;2024-01-06T00:38:01;98999.81;;;10.52;67.22
11912;BME280;6016;41.928;25.556;2024-01-06T00:40:28;98991.75;;;10.34;66.74
11912;BME280;6016;41.928;25.556;2024-01-06T00:42:57;98968.19;;;10.23;66.42
11912;BME280;6016;41.928;25.556;2024-01-06T00:45:24;98990.34;;;10.40;67.08
11912;BME280;6016;41.928;25.556;2024-01-06T00:47:51;98986.91;;;10.30;68.07
11912;BME280;6016;41.928;25.556;2024-01-06T00:50:18;98971.63;;;10.23;67.00
11912;BME280;6016;41.928;25.556;2024-01-06T00:52:45;98982.31;;;10.41;68.93
11912;BME280;6016;41.928;25.556;2024-01-06T00:55:14;98979.81;;;10.30;66.99
11912;BME280;6016;41.928;25.556;2024-01-06T00:57:41;98977.59;;;10.35;64.50
11912;BME280;6016;41.928;25.556;2024-01-06T01:00:08;98846.91;;;9.55;64.73
11912;BME280;6016;41.928;25.556;2024-01-06T01:02:36;98987.44;;;10.33;67.41
11912;BME280;6016;41.928;25.556;2024-01-06T01:05:03;98983.16;;;10.42;66.09
11912;BME280;6016;41.928;25.556;2024-01-06T01:07:30;98971.75;;;10.32;66.08
11912;BME280;6016;41.928;25.556;2024-01-06T01:09:57;98982.06;;;10.45;65.25
11912;BME280;6016;41.928;25.556;2024-01-06T01:12:25;98969.69;;;10.35;64.12
11912;BME280;6016;41.928;25.556;2024-01-06T01:14:53;98974.53;;;10.30;64.78
11912;BME280;6016;41.928;25.556;2024-01-06T01:17:20;98969.97;;;10.32;63.59
11912;BME280;6016;41.928;25.556;2024-01-06T01:19:47;98965.53;;;10.33;63.31
11912;BME280;6016;41.928;25.556;2024-01-06T01:22:14;98957.06;;;10.29;65.62
11912;BME280;6016;41.928;25.556;2024-01-06T01:24:41;98956.78;;;10.22;64.59
11912;BME280;6016;41.928;25.556;2024-01-06T01:27:08;98964.16;;;10.28;64.84
11912;BME280;6016;41.928;25.556;2024-01-06T01:29:37;98949.16;;;10.19;63.52
11912;BME280;6016;41.928;25.556;2024-01-06T01:32:05;98965.25;;;10.26;63.71
11912;BME280;6016;41.928;25.556;2024-01-06T01:34:32;98969.16;;;9.92;65.80
11912;BME280;6016;41.928;25.556;2024-01-06T01:37:00;98958.63;;;9.92;66.23
11912;BME280;6016;41.928;25.556;2024-01-06T01:39:27;98955.44;;;9.79;65.99
11912;BME280;6016;41.928;25.556;2024-01-06T01:41:54;98943.09;;;9.99;66.00
11912;BME280;6016;41.928;25.556;2024-01-06T01:44:21;98944.72;;;10.10;66.25
11912;BME280;6016;41.928;25.556;2024-01-06T01:46:50;98931.00;;;10.16;65.21
11912;BME280;6016;41.928;25.556;2024-01-06T01:49:17;98919.22;;;10.10;65.74
11912;BME280;6016;41.928;25.556;2024-01-06T01:51:44;98926.84;;;10.13;64.85
11912;BME280;6016;41.928;25.556;2024-01-06T01:54:11;98920.47;;;10.16;62.95
11912;BME280;6016;41.928;25.556;2024-01-06T01:56:39;98923.84;;;9.79;63.75
11912;BME280;6016;41.928;25.556;2024-01-06T01:59:09;98907.72;;;9.92;63.92
11912;BME280;6016;41.928;25.556;2024-01-06T02:01:37;98897.34;;;9.80;63.64
11912;BME280;6016;41.928;25.556;2024-01-06T02:04:07;98903.97;;;9.94;63.96
11912;BME280;6016;41.928;25.556;2024-01-06T02:06:34;98890.41;;;9.99;63.89
11912;BME280;6016;41.928;25.556;2024-01-06T02:09:01;98890.94;;;10.03;64.45
11912;BME280;6016;41.928;25.556;2024-01-06T02:11:28;98868.38;;;9.90;64.31
11912;BME280;6016;41.928;25.556;2024-01-06T02:13:55;98892.88;;;9.91;64.31
11912;BME280;6016;41.928;25.556;2024-01-06T02:16:22;98852.88;;;9.57;65.44
11912;BME280;6016;41.928;25.556;2024-01-06T02:18:49;98894.44;;;9.64;65.90
11912;BME280;6016;41.928;25.556;2024-01-06T02:21:21;98896.94;;;9.65;66.31
11912;BME280;6016;41.928;25.556;2024-01-06T02:23:49;98742.59;;;8.56;66.47
11912;BME280;6016;41.928;25.556;2024-01-06T02:26:16;98872.94;;;9.19;67.19
11912;BME280;6016;41.928;25.556;2024-01-06T02:28:44;98881.53;;;9.21;67.28
11912;BME280;6016;41.928;25.556;2024-01-06T02:31:13;98860.31;;;9.13;67.02
11912;BME280;6016;41.928;25.556;2024-01-06T02:33:40;98910.38;;;9.42;67.34
11912;BME280;6016;41.928;25.556;2024-01-06T02:36:07;98907.72;;;9.52;68.51
11912;BME280;6016;41.928;25.556;2024-01-06T02:38:34;98901.78;;;9.60;67.30
11912;BME280;6016;41.928;25.556;2024-01-06T02:41:03;98875.16;;;9.53;66.73
11912;BME280;6016;41.928;25.556;2024-01-06T02:43:30;98876.84;;;9.54;66.59
11912;BME280;6016;41.928;25.556;2024-01-06T02:45:57;98905.38;;;9.79;66.21
11912;BME280;6016;41.928;25.556;2024-01-06T02:48:24;98904.13;;;9.83;66.14
11912;BME280;6016;41.928;25.556;2024-01-06T02:50:51;98898.06;;;9.82;66.64
11912;BME280;6016;41.928;25.556;2024-01-06T02:53:18;98899.16;;;9.80;66.57
11912;BME280;6016;41.928;25.556;2024-01-06T02:55:45;98896.50;;;9.80;67.36
11912;BME280;6016;41.928;25.556;2024-01-06T02:58:13;98888.63;;;9.80;66.68
11912;BME280;6016;41.928;25.556;2024-01-06T03:00:40;98887.09;;;9.77;66.76
11912;BME280;6016;41.928;25.556;2024-01-06T03:03:07;98879.59;;;9.73;68.97
11912;BME280;6016;41.928;25.556;2024-01-06T03:05:34;98878.94;;;9.51;67.79
11912;BME280;6016;41.928;25.556;2024-01-06T03:08:02;98884.34;;;9.69;67.32
11912;BME280;6016;41.928;25.556;2024-01-06T03:10:30;98891.66;;;9.75;67.22
11912;BME280;6016;41.928;25.556;2024-01-06T03:12:57;98891.09;;;9.71;66.83
11912;BME280;6016;41.928;25.556;2024-01-06T03:15:25;98895.56;;;9.71;68.30
11912;BME280;6016;41.928;25.556;2024-01-06T03:17:52;98900.25;;;9.77;67.60
11912;BME280;6016;41.928;25.556;2024-01-06T03:20:19;98897.09;;;9.74;67.50
11912;BME280;6016;41.928;25.556;2024-01-06T03:22:46;98905.38;;;9.79;67.72
11912;BME280;6016;41.928;25.556;2024-01-06T03:25:13;98885.56;;;9.65;67.02
11912;BME280;6016;41.928;25.556;2024-01-06T03:27:40;98907.19;;;9.78;67.04
11912;BME280;6016;41.928;25.556;2024-01-06T03:30:08;98704.25;;;8.53;67.85
11912;BME280;6016;41.928;25.556;2024-01-06T03:32:36;98707.84;;;8.52;68.59
11912;BME280;6016;41.928;25.556;2024-01-06T03:35:05;98910.81;;;9.87;70.06
11912;BME280;6016;41.928;25.556;2024-01-06T03:37:33;98916.59;;;9.91;67.90
11912;BME280;6016;41.928;25.556;2024-01-06T03:40:00;98915.50;;;9.83;67.65
11912;BME280;6016;41.928;25.556;2024-01-06T03:42:26;98900.53;;;9.74;68.99
11912;BME280;6016;41.928;25.556;2024-01-06T03:44:53;98909.13;;;9.96;67.20
11912;BME280;6016;41.928;25.556;2024-01-06T03:47:20;98911.06;;;9.84;69.28
11912;BME280;6016;41.928;25.556;2024-01-06T03:49:49;98918.13;;;9.93;68.60
11912;BME280;6016;41.928;25.556;2024-01-06T03:52:16;98817.53;;;9.40;68.23
11912;BME280;6016;41.928;25.556;2024-01-06T03:54:43;98915.22;;;9.96;66.97
11912;BME280;6016;41.928;25.556;2024-01-06T03:57:10;98905.94;;;9.82;67.28
11912;BME280;6016;41.928;25.556;2024-01-06T03:59:37;98914.53;;;9.94;67.02
11912;BME280;6016;41.928;25.556;2024-01-06T04:02:04;98916.59;;;9.91;67.04
11912;BME280;6016;41.928;25.556;2024-01-06T04:04:31;98914.13;;;9.89;67.44
11912;BME280;6016;41.928;25.556;2024-01-06T04:06:59;98915.38;;;9.75;68.99
11912;BME280;6016;41.928;25.556;2024-01-06T04:09:27;98885.56;;;9.65;68.16
11912;BME280;6016;41.928;25.556;2024-01-06T04:11:53;98913.00;;;9.82;68.11
11912;BME280;6016;41.928;25.556;2024-01-06T04:14:21;98913.84;;;9.73;69.06
11912;BME280;6016;41.928;25.556;2024-01-06T04:16:47;98912.31;;;9.50;68.45
11912;BME280;6016;41.928;25.556;2024-01-06T04:19:14;98910.66;;;9.59;68.41
11912;BME280;6016;41.928;25.556;2024-01-06T04:21:41;98909.00;;;9.68;68.59
11912;BME280;6016;41.928;25.556;2024-01-06T04:24:10;98907.47;;;9.65;68.10
11912;BME280;6016;41.928;25.556;2024-01-06T04:26:37;98924.38;;;9.63;68.81
11912;BME280;6016;41.928;25.556;2024-01-06T04:29:04;98886.00;;;9.31;69.11
11912;BME280;6016;41.928;25.556;2024-01-06T04:31:31;98920.78;;;9.54;69.07
11912;BME280;6016;41.928;25.556;2024-01-06T04:33:58;98908.00;;;9.39;68.53
11912;BME280;6016;41.928;25.556;2024-01-06T04:36:25;98912.88;;;9.54;68.93
11912;BME280;6016;41.928;25.556;2024-01-06T04:38:52;98916.19;;;9.46;70.16
11912;BME280;6016;41.928;25.556;2024-01-06T04:41:20;98926.03;;;9.64;70.09
11912;BME280;6016;41.928;25.556;2024-01-06T04:43:47;98926.59;;;9.57;69.40
11912;BME280;6016;41.928;25.556;2024-01-06T04:46:14;98916.34;;;9.54;69.13
11912;BME280;6016;41.928;25.556;2024-01-06T04:48:41;98917.28;;;9.53;69.38
11912;BME280;6016;41.928;25.556;2024-01-06T04:51:09;98917.28;;;9.53;69.33
11912;BME280;6016;41.928;25.556;2024-01-06T04:53:37;98898.75;;;9.45;69.91
11912;BME280;6016;41.928;25.556;2024-01-06T04:56:05;98911.63;;;9.58;69.74
11912;BME280;6016;41.928;25.556;2024-01-06T04:58:33;98914.41;;;9.66;69.80
11912;BME280;6016;41.928;25.556;2024-01-06T05:01:01;98919.94;;;9.63;69.77
11912;BME280;6016;41.928;25.556;2024-01-06T05:03:28;98904.16;;;9.63;70.01
11912;BME280;6016;41.928;25.556;2024-01-06T05:05:55;98909.25;;;9.65;69.59
11912;BME280;6016;41.928;25.556;2024-01-06T05:08:22;98916.06;;;9.67;69.76
11912;BME280;6016;41.928;25.556;2024-01-06T05:10:52;98918.00;;;9.65;70.07
11912;BME280;6016;41.928;25.556;2024-01-06T05:13:19;98902.63;;;9.51;69.79
11912;BME280;6016;41.928;25.556;2024-01-06T05:15:47;98911.66;;;9.68;69.96
11912;BME280;6016;41.928;25.556;2024-01-06T05:18:15;98872.13;;;9.38;69.92
11912;BME280;6016;41.928;25.556;2024-01-06T05:20:42;98902.91;;;9.57;70.02
11912;BME280;6016;41.928;25.556;2024-01-06T05:23:09;98886.25;;;9.47;69.57
11912;BME280;6016;41.928;25.556;2024-01-06T05:25:36;98924.53;;;9.71;69.34
11912;BME280;6016;41.928;25.556;2024-01-06T05:28:03;98920.91;;;9.72;69.43
11912;BME280;6016;41.928;25.556;2024-01-06T05:30:30;98910.78;;;9.67;69.76
11912;BME280;6016;41.928;25.556;2024-01-06T05:32:59;98887.53;;;9.43;70.13
11912;BME280;6016;41.928;25.556;2024-01-06T05:35:26;98927.28;;;9.60;70.35
11912;BME280;6016;41.928;25.556;2024-01-06T05:37:53;98903.72;;;9.48;69.84
11912;BME280;6016;41.928;25.556;2024-01-06T05:40:20;98925.47;;;9.60;70.54
11912;BME280;6016;41.928;25.556;2024-01-06T05:42:47;98918.25;;;9.52;69.96
11912;BME280;6016;41.928;25.556;2024-01-06T05:45:14;98939.06;;;9.65;70.68
11912;BME280;6016;41.928;25.556;2024-01-06T05:47:41;98940.63;;;9.68;70.39
11912;BME280;6016;41.928;25.556;2024-01-06T05:50:10;98939.19;;;9.64;70.81
11912;BME280;6016;41.928;25.556;2024-01-06T05:52:37;98935.75;;;9.63;71.13
11912;BME280;6016;41.928;25.556;2024-01-06T05:55:04;98931.31;;;9.64;71.13
11912;BME280;6016;41.928;25.556;2024-01-06T05:57:32;98930.75;;;9.70;70.66
11912;BME280;6016;41.928;25.556;2024-01-06T05:59:59;98907.19;;;9.59;70.49
11912;BME280;6016;41.928;25.556;2024-01-06T06:02:26;98930.47;;;9.73;70.41
11912;BME280;6016;41.928;25.556;2024-01-06T06:04:53;98923.69;;;9.70;70.76
11912;BME280;6016;41.928;25.556;2024-01-06T06:07:21;98922.72;;;9.71;70.97
11912;BME280;6016;41.928;25.556;2024-01-06T06:09:48;98921.72;;;9.73;71.55
11912;BME280;6016;41.928;25.556;2024-01-06T06:12:15;98898.03;;;9.63;70.83
11912;BME280;6016;41.928;25.556;2024-01-06T06:14:42;98916.63;;;9.71;71.28
11912;BME280;6016;41.928;25.556;2024-01-06T06:17:09;98923.44;;;9.74;70.96
11912;BME280;6016;41.928;25.556;2024-01-06T06:19:36;98917.72;;;9.78;70.39
11912;BME280;6016;41.928;25.556;2024-01-06T06:22:04;98934.25;;;9.80;69.85
11912;BME280;6016;41.928;25.556;2024-01-06T06:24:32;98916.19;;;9.85;70.03
11912;BME280;6016;41.928;25.556;2024-01-06T06:26:59;98900.53;;;9.74;70.92
11912;BME280;6016;41.928;25.556;2024-01-06T06:29:26;98926.44;;;9.89;70.67
11912;BME280;6016;41.928;25.556;2024-01-06T06:31:54;98919.53;;;9.88;70.25
11912;BME280;6016;41.928;25.556;2024-01-06T06:34:21;98909.97;;;9.87;70.47
11912;BME280;6016;41.928;25.556;2024-01-06T06:36:48;98904.00;;;9.84;71.01
11912;BME280;6016;41.928;25.556;2024-01-06T06:39:15;98909.69;;;9.70;70.69
11912;BME280;6016;41.928;25.556;2024-01-06T06:41:45;98914.94;;;9.90;71.16
11912;BME280;6016;41.928;25.556;2024-01-06T06:44:12;98908.84;;;9.79;70.49
11912;BME280;6016;41.928;25.556;2024-01-06T06:46:39;98908.28;;;9.85;70.83
11912;BME280;6016;41.928;25.556;2024-01-06T06:49:06;98911.63;;;9.88;70.97
11912;BME280;6016;41.928;25.556;2024-01-06T06:51:33;98902.75;;;9.79;71.00
11912;BME280;6016;41.928;25.556;2024-01-06T06:54:00;98897.34;;;9.80;70.89
11912;BME280;6016;41.928;25.556;2024-01-06T06:56:27;98898.44;;;9.88;70.62
11912;BME280;6016;41.928;25.556;2024-01-06T06:58:55;98901.50;;;9.93;70.61
11912;BME280;6016;41.928;25.556;2024-01-06T07:01:22;98904.66;;;9.96;70.42
11912;BME280;6016;41.928;25.556;2024-01-06T07:03:49;98897.63;;;9.97;70.59
11912;BME280;6016;41.928;25.556;2024-01-06T07:06:16;98892.91;;;10.01;70.11
11912;BME280;6016;41.928;25.556;2024-01-06T07:08:43;98892.75;;;10.02;70.56
11912;BME280;6016;41.928;25.556;2024-01-06T07:11:10;98879.31;;;9.85;70.06
11912;BME280;6016;41.928;25.556;2024-01-06T07:13:40;98885.97;;;9.90;70.52
11912;BME280;6016;41.928;25.556;2024-01-06T07:16:08;98813.38;;;9.57;70.09
11912;BME280;6016;41.928;25.556;2024-01-06T07:18:37;98898.00;;;10.02;70.63
11912;BME280;6016;41.928;25.556;2024-01-06T07:21:04;98893.41;;;10.04;70.50
11912;BME280;6016;41.928;25.556;2024-01-06T07:23:31;98884.28;;;10.08;70.70
11912;BME280;6016;41.928;25.556;2024-01-06T07:25:58;98887.31;;;10.13;70.28
11912;BME280;6016;41.928;25.556;2024-01-06T07:28:26;98888.16;;;10.04;71.03
11912;BME280;6016;41.928;25.556;2024-01-06T07:30:53;98884.13;;;10.10;70.42
11912;BME280;6016;41.928;25.556;2024-01-06T07:33:21;98876.38;;;10.08;70.69
11912;BME280;6016;41.928;25.556;2024-01-06T07:35:50;98871.91;;;10.19;70.67
11912;BME280;6016;41.928;25.556;2024-01-06T07:38:17;98867.16;;;10.22;71.26
11912;BME280;6016;41.928;25.556;2024-01-06T07:40:45;98878.25;;;10.26;70.59
11912;BME280;6016;41.928;25.556;2024-01-06T07:43:12;98873.66;;;10.28;70.54
11912;BME280;6016;41.928;25.556;2024-01-06T07:45:40;98873.66;;;10.28;70.05
11912;BME280;6016;41.928;25.556;2024-01-06T07:48:07;98875.25;;;10.21;69.94
11912;BME280;6016;41.928;25.556;2024-01-06T07:50:36;98867.50;;;10.09;70.69
11912;BME280;6016;41.928;25.556;2024-01-06T07:53:03;98869.00;;;10.22;70.95
11912;BME280;6016;41.928;25.556;2024-01-06T07:55:30;98865.25;;;10.24;70.61
11912;BME280;6016;41.928;25.556;2024-01-06T07:57:57;98857.19;;;10.26;70.45
11912;BME280;6016;41.928;25.556;2024-01-06T08:00:24;98853.97;;;10.32;70.18
11912;BME280;6016;41.928;25.556;2024-01-06T08:02:51;98854.97;;;10.31;70.09
11912;BME280;6016;41.928;25.556;2024-01-06T08:05:18;98851.03;;;10.35;71.04
11912;BME280;6016;41.928;25.556;2024-01-06T08:07:47;98847.97;;;10.40;70.92
11912;BME280;6016;41.928;25.556;2024-01-06T08:10:15;98855.56;;;10.53;70.36
11912;BME280;6016;41.928;25.556;2024-01-06T08:12:42;98845.44;;;10.58;70.97
11912;BME280;6016;41.928;25.556;2024-01-06T08:15:09;98855.31;;;10.56;70.99
11912;BME280;6016;41.928;25.556;2024-01-06T08:17:36;98846.25;;;10.59;71.11
11912;BME280;6016;41.928;25.556;2024-01-06T08:20:06;98792.69;;;10.20;69.94
11912;BME280;6016;41.928;25.556;2024-01-06T08:22:34;98855.38;;;10.64;70.76
11912;BME280;6016;41.928;25.556;2024-01-06T08:25:03;98823.13;;;10.43;70.34
11912;BME280;6016;41.928;25.556;2024-01-06T08:27:31;98861.44;;;10.75;70.79
11912;BME280;6016;41.928;25.556;2024-01-06T08:29:58;98859.19;;;10.80;69.71
11912;BME280;6016;41.928;25.556;2024-01-06T08:32:25;98861.69;;;10.81;70.59
11912;BME280;6016;41.928;25.556;2024-01-06T08:34:52;98854.47;;;10.83;69.68
11912;BME280;6016;41.928;25.556;2024-01-06T08:37:19;98846.25;;;10.87;69.69
11912;BME280;6016;41.928;25.556;2024-01-06T08:39:46;98685.94;;;9.78;70.16
11912;BME280;6016;41.928;25.556;2024-01-06T08:42:15;98840.47;;;10.73;70.54
11912;BME280;6016;41.928;25.556;2024-01-06T08:44:42;98838.38;;;10.77;70.58
11912;BME280;6016;41.928;25.556;2024-01-06T08:47:09;98846.50;;;10.65;70.93
11912;BME280;6016;41.928;25.556;2024-01-06T08:49:36;98810.66;;;10.35;71.89
11912;BME280;6016;41.928;25.556;2024-01-06T08:52:04;98844.28;;;10.61;71.72
11912;BME280;6016;41.928;25.556;2024-01-06T08:54:31;98842.50;;;10.61;72.33
11912;BME280;6016;41.928;25.556;2024-01-06T08:56:58;98797.03;;;10.39;72.60
11912;BME280;6016;41.928;25.556;2024-01-06T08:59:27;98832.28;;;10.76;71.28
11912;BME280;6016;41.928;25.556;2024-01-06T09:01:54;98834.09;;;10.76;71.32
11912;BME280;6016;41.928;25.556;2024-01-06T09:04:22;98836.00;;;10.83;70.10
11912;BME280;6016;41.928;25.556;2024-01-06T09:06:49;98813.97;;;10.75;70.69
11912;BME280;6016;41.928;25.556;2024-01-06T09:09:16;98823.22;;;10.79;71.54
11912;BME280;6016;41.928;25.556;2024-01-06T09:11:43;98825.84;;;10.89;71.87
11912;BME280;6016;41.928;25.556;2024-01-06T09:14:11;98823.56;;;10.94;71.37
11912;BME280;6016;41.928;25.556;2024-01-06T09:16:40;98814.22;;;11.00;70.31
11912;BME280;6016;41.928;25.556;2024-01-06T09:19:07;98808.94;;;11.00;71.02
11912;BME280;6016;41.928;25.556;2024-01-06T09:21:34;98800.25;;;10.89;71.38
11912;BME280;6016;41.928;25.556;2024-01-06T09:24:02;98763.94;;;10.55;70.88
11912;BME280;6016;41.928;25.556;2024-01-06T09:26:31;98797.78;;;10.88;70.94
11912;BME280;6016;41.928;25.556;2024-01-06T09:28:59;98801.34;;;10.96;71.75
11912;BME280;6016;41.928;25.556;2024-01-06T09:31:26;98779.31;;;11.06;71.40
11912;BME280;6016;41.928;25.556;2024-01-06T09:33:55;98785.50;;;11.15;70.93
11912;BME280;6016;41.928;25.556;2024-01-06T09:36:22;98772.53;;;11.03;71.06
11912;BME280;6016;41.928;25.556;2024-01-06T09:38:49;98782.78;;;11.24;71.14
11912;BME280;6016;41.928;25.556;2024-01-06T09:41:16;98788.72;;;11.26;70.60
11912;BME280;6016;41.928;25.556;2024-01-06T09:43:43;98782.31;;;11.29;71.79
11912;BME280;6016;41.928;25.556;2024-01-06T09:46:14;98777.94;;;11.38;71.17
11912;BME280;6016;41.928;25.556;2024-01-06T09:48:43;98768.72;;;11.42;71.00
11912;BME280;6016;41.928;25.556;2024-01-06T09:51:11;98763.81;;;11.47;70.49
11912;BME280;6016;41.928;25.556;2024-01-06T09:53:46;98762.75;;;11.40;70.64
11912;BME280;6016;41.928;25.556;2024-01-06T09:56:15;98700.13;;;11.06;71.02
11912;BME280;6016;41.928;25.556;2024-01-06T09:58:43;98758.72;;;11.28;71.32
11912;BME280;6016;41.928;25.556;2024-01-06T10:01:11;98758.03;;;11.25;71.68
11912;BME280;6016;41.928;25.556;2024-01-06T10:03:40;98745.16;;;11.22;71.87
11912;BME280;6016;41.928;25.556;2024-01-06T10:06:07;98755.19;;;11.19;71.93
11912;BME280;6016;41.928;25.556;2024-01-06T10:08:36;98722.72;;;11.26;71.80
11912;BME280;6016;41.928;25.556;2024-01-06T10:11:06;98750.69;;;11.37;71.21
11912;BME280;6016;41.928;25.556;2024-01-06T10:13:33;98738.53;;;11.45;71.64
11912;BME280;6016;41.928;25.556;2024-01-06T10:16:00;98746.38;;;11.36;71.51
11912;BME280;6016;41.928;25.556;2024-01-06T10:18:27;98736.22;;;11.42;71.55
11912;BME280;6016;41.928;25.556;2024-01-06T10:20:55;98719.38;;;11.43;71.33
11912;BME280;6016;41.928;25.556;2024-01-06T10:23:22;98717.88;;;11.40;70.84
11912;BME280;6016;41.928;25.556;2024-01-06T10:25:53;98724.81;;;11.41;71.20
11912;BME280;6016;41.928;25.556;2024-01-06T10:28:20;98711.25;;;11.36;71.56
11912;BME280;6016;41.928;25.556;2024-01-06T10:30:48;98708.44;;;11.37;71.91
11912;BME280;6016;41.928;25.556;2024-01-06T10:33:16;98702.94;;;11.31;71.76
11912;BME280;6016;41.928;25.556;2024-01-06T10:35:43;98691.47;;;11.14;72.27
11912;BME280;6016;41.928;25.556;2024-01-06T10:38:11;98549.63;;;10.26;72.08
11912;BME280;6016;41.928;25.556;2024-01-06T10:40:38;98685.34;;;11.13;71.99
11912;BME280;6016;41.928;25.556;2024-01-06T10:43:07;98660.31;;;10.99;72.38
11912;BME280;6016;41.928;25.556;2024-01-06T10:45:35;98681.06;;;11.12;73.04
11912;BME280;6016;41.928;25.556;2024-01-06T10:48:05;98665.91;;;10.96;73.10
11912;BME280;6016;41.928;25.556;2024-01-06T10:50:33;98666.38;;;10.91;73.08
11912;BME280;6016;41.928;25.556;2024-01-06T10:53:00;98658.19;;;10.76;74.23
11912;BME280;6016;41.928;25.556;2024-01-06T10:55:29;98651.16;;;10.67;73.86
11912;BME280;6016;41.928;25.556;2024-01-06T10:57:58;98651.72;;;10.52;75.15
11912;BME280;6016;41.928;25.556;2024-01-06T11:00:27;98620.34;;;10.31;75.08
11912;BME280;6016;41.928;25.556;2024-01-06T11:02:55;98632.34;;;10.44;75.66
11912;BME280;6016;41.928;25.556;2024-01-06T11:05:23;98647.03;;;10.46;76.22
11912;BME280;6016;41.928;25.556;2024-01-06T11:07:51;98654.97;;;10.36;77.11
11912;BME280;6016;41.928;25.556;2024-01-06T11:10:25;98637.81;;;10.32;76.52
11912;BME280;6016;41.928;25.556;2024-01-06T11:13:09;98646.16;;;10.27;77.48
11912;BME280;6016;41.928;25.556;2024-01-06T11:15:41;98646.41;;;10.34;77.05
11912;BME280;6016;41.928;25.556;2024-01-06T11:18:09;98611.81;;;10.19;77.20
11912;BME280;6016;41.928;25.556;2024-01-06T11:20:36;98588.84;;;10.11;76.79
11912;BME280;6016;41.928;25.556;2024-01-06T11:23:26;98637.16;;;10.48;77.50
11912;BME280;6016;41.928;25.556;2024-01-06T11:25:54;98626.66;;;10.38;77.43
11912;BME280;6016;41.928;25.556;2024-01-06T11:28:21;98637.06;;;10.40;77.56
11912;BME280;6016;41.928;25.556;2024-01-06T11:31:05;98607.88;;;10.23;77.49
11912;BME280;6016;41.928;25.556;2024-01-06T11:33:32;98589.59;;;10.22;77.91
11912;BME280;6016;41.928;25.556;2024-01-06T11:36:01;98607.91;;;10.41;77.89
11912;BME280;6016;41.928;25.556;2024-01-06T11:38:33;98618.47;;;10.60;77.68
11912;BME280;6016;41.928;25.556;2024-01-06T11:41:00;98608.63;;;10.62;77.57
11912;BME280;6016;41.928;25.556;2024-01-06T11:43:27;98606.34;;;10.67;76.91
11912;BME280;6016;41.928;25.556;2024-01-06T11:45:57;98596.13;;;10.72;76.54
11912;BME280;6016;41.928;25.556;2024-01-06T11:48:27;98599.19;;;10.59;77.15
11912;BME280;6016;41.928;25.556;2024-01-06T11:50:58;98595.44;;;10.62;77.67
11912;BME280;6016;41.928;25.556;2024-01-06T11:53:26;98585.22;;;10.67;77.81
11912;BME280;6016;41.928;25.556;2024-01-06T11:55:53;98589.31;;;10.61;77.53
11912;BME280;6016;41.928;25.556;2024-01-06T11:58:21;98502.09;;;10.18;78.12
11912;BME280;6016;41.928;25.556;2024-01-06T12:00:56;98583.41;;;10.67;77.68
11912;BME280;6016;41.928;25.556;2024-01-06T12:03:23;98596.31;;;10.71;78.37
11912;BME280;6016;41.928;25.556;2024-01-06T12:05:59;98558.44;;;10.53;78.59
11912;BME280;6016;41.928;25.556;2024-01-06T12:08:27;98591.09;;;10.61;78.27
11912;BME280;6016;41.928;25.556;2024-01-06T12:11:02;98600.59;;;10.72;78.41
11912;BME280;6016;41.928;25.556;2024-01-06T12:13:29;98514.06;;;10.31;78.23
11912;BME280;6016;41.928;25.556;2024-01-06T12:15:58;98586.97;;;10.76;78.49
11912;BME280;6016;41.928;25.556;2024-01-06T12:18:25;98598.31;;;10.77;79.17
11912;BME280;6016;41.928;25.556;2024-01-06T12:20:53;98594.16;;;10.74;79.28
11912;BME280;6016;41.928;25.556;2024-01-06T12:23:26;98577.91;;;10.61;78.97
11912;BME280;6016;41.928;25.556;2024-01-06T12:25:53;98576.66;;;10.65;79.13
11912;BME280;6016;41.928;25.556;2024-01-06T12:28:20;98579.66;;;10.70;79.92
11912;BME280;6016;41.928;25.556;2024-01-06T12:30:47;98585.91;;;10.69;79.81
11912;BME280;6016;41.928;25.556;2024-01-06T12:33:16;98575.25;;;10.79;80.00
11912;BME280;6016;41.928;25.556;2024-01-06T12:35:43;98517.06;;;10.54;78.96
11912;BME280;6016;41.928;25.556;2024-01-06T12:38:10;98541.69;;;10.63;79.31
11912;BME280;6016;41.928;25.556;2024-01-06T12:40:37;98559.66;;;10.67;79.26
11912;BME280;6016;41.928;25.556;2024-01-06T12:43:05;98526.06;;;10.69;79.14
11912;BME280;6016;41.928;25.556;2024-01-06T12:45:32;98547.34;;;10.94;78.82
11912;BME280;6016;41.928;25.556;2024-01-06T12:47:59;98576.34;;;11.21;79.44
11912;BME280;6016;41.928;25.556;2024-01-06T12:50:28;98581.41;;;11.40;77.93
11912;BME280;6016;41.928;25.556;2024-01-06T12:52:55;98527.03;;;11.21;78.01
11912;BME280;6016;41.928;25.556;2024-01-06T12:55:21;98580.84;;;11.63;77.20
11912;BME280;6016;41.928;25.556;2024-01-06T12:57:48;98545.25;;;11.41;77.44
11912;BME280;6016;41.928;25.556;2024-01-06T13:00:16;98574.38;;;11.58;77.26
11912;BME280;6016;41.928;25.556;2024-01-06T13:02:43;98561.50;;;11.63;77.48
11912;BME280;6016;41.928;25.556;2024-01-06T13:05:10;98530.94;;;11.52;77.27
11912;BME280;6016;41.928;25.556;2024-01-06T13:07:39;98560.88;;;11.77;77.06